createdAt,value
2022-11-22T00:02:02.077Z,93428.91
2022-11-22T00:04:28.521Z,93422.16
2022-11-22T00:06:54.856Z,93418.31
2022-11-22T00:09:21.222Z,93480.38
2022-11-22T00:11:47.569Z,93472.50
2022-11-22T00:14:14.061Z,93468.16
2022-11-22T00:16:40.409Z,93482.00
2022-11-22T00:19:06.740Z,93488.41
2022-11-22T00:21:33.095Z,93463.34
2022-11-22T00:23:59.445Z,93469.13
2022-11-22T00:26:25.806Z,93457.56
2022-11-22T00:28:52.147Z,93479.94
2022-11-22T00:31:18.535Z,93480.72
2022-11-22T00:33:44.895Z,93482.34
2022-11-22T00:36:11.388Z,93488.59
2022-11-22T00:38:37.735Z,93566.59
2022-11-22T00:41:04.288Z,93566.31
2022-11-22T00:43:31.444Z,93582.03
2022-11-22T00:45:57.806Z,93578.22
2022-11-22T00:48:24.123Z,93586.91
2022-11-22T00:50:50.493Z,93570.50
2022-11-22T00:53:16.875Z,93574.66
2022-11-22T00:55:44.638Z,93566.94
2022-11-22T00:58:11.114Z,93571.13
2022-11-22T01:00:37.564Z,93557.31
2022-11-22T01:03:04.015Z,93560.53
2022-11-22T01:05:30.361Z,93548.31
2022-11-22T01:07:56.757Z,93542.22
2022-11-22T01:10:23.311Z,93539.66
2022-11-22T01:12:49.674Z,93525.81
2022-11-22T01:15:16.068Z,93526.78
2022-11-22T01:17:42.454Z,93511.50
2022-11-22T01:20:09.343Z,93496.53
2022-11-22T01:22:35.687Z,93489.47
2022-11-22T01:25:02.048Z,93475.28
2022-11-22T01:27:28.528Z,93479.81
2022-11-22T01:29:54.891Z,93472.91
2022-11-22T01:32:21.252Z,93465.81
2022-11-22T01:34:47.637Z,93458.25
2022-11-22T01:37:15.255Z,93449.56
2022-11-22T01:39:41.604Z,93438.31
2022-11-22T01:42:08.985Z,93434.13
2022-11-22T01:44:35.323Z,93428.97
2022-11-22T01:47:11.276Z,93417.06
2022-11-22T01:50:00.209Z,93396.66
2022-11-22T01:52:27.952Z,93387.94
2022-11-22T01:54:57.007Z,93390.72
2022-11-22T01:57:25.378Z,93388.78
2022-11-22T02:00:01.528Z,93374.94
2022-11-22T02:02:27.901Z,93367.22
2022-11-22T02:04:54.378Z,93360.16
2022-11-22T02:07:37.937Z,93350.00
2022-11-22T02:10:04.753Z,93341.78
2022-11-22T02:12:31.787Z,93342.13
2022-11-22T02:14:58.316Z,93330.50
2022-11-22T02:17:27.879Z,93318.28
2022-11-22T02:19:54.238Z,93316.34
2022-11-22T02:22:32.818Z,93312.16
2022-11-22T02:25:09.299Z,93313.78
2022-11-22T02:27:35.725Z,93312.84
2022-11-22T02:30:02.089Z,93309.44
2022-11-22T02:32:28.436Z,93311.53
2022-11-22T02:34:54.808Z,93306.06
2022-11-22T02:37:27.443Z,93301.09
2022-11-22T02:39:57.420Z,93294.81
2022-11-22T02:42:25.323Z,93298.00
2022-11-22T02:44:51.714Z,93302.34
2022-11-22T02:47:18.068Z,93290.28
2022-11-22T02:49:44.536Z,93279.66
2022-11-22T02:52:10.873Z,93278.69
2022-11-22T02:54:37.242Z,93271.59
2022-11-22T02:57:03.665Z,93275.16
2022-11-22T02:59:30.145Z,93277.09
2022-11-22T03:02:02.813Z,93276.75
2022-11-22T03:04:29.742Z,93278.38
2022-11-22T03:06:57.609Z,93268.06
2022-11-22T03:09:25.358Z,93264.53
2022-11-22T03:11:51.897Z,93250.34
2022-11-22T03:14:18.339Z,93246.81
2022-11-22T03:16:44.924Z,93253.88
2022-11-22T03:19:11.442Z,93244.84
2022-11-22T03:21:38.473Z,93247.44
2022-11-22T03:24:06.352Z,93238.44
2022-11-22T03:26:32.853Z,93245.22
2022-11-22T03:28:59.256Z,93244.84
2022-11-22T03:31:25.682Z,93250.81
2022-11-22T03:33:52.165Z,93252.78
2022-11-22T03:36:18.772Z,93238.41
2022-11-22T03:38:45.145Z,93229.69
2022-11-22T03:41:11.539Z,93227.94
2022-11-22T03:43:38.171Z,93218.63
2022-11-22T03:46:04.574Z,93217.97
2022-11-22T03:48:31.018Z,93207.84
2022-11-22T03:51:04.913Z,93188.34
2022-11-22T03:53:31.910Z,93178.53
2022-11-22T03:55:58.253Z,93170.78
2022-11-22T03:58:24.794Z,93151.13
2022-11-22T04:00:51.166Z,93135.34
2022-11-22T04:03:17.566Z,93124.72
2022-11-22T04:05:44.977Z,93133.41
2022-11-22T04:08:11.374Z,93145.31
2022-11-22T04:10:37.716Z,93140.78
2022-11-22T04:13:04.093Z,93135.47
2022-11-22T04:15:30.432Z,93127.91
2022-11-22T04:17:56.801Z,93119.22
2022-11-22T04:20:43.431Z,93123.41
2022-11-22T04:23:13.485Z,93116.47
2022-11-22T04:25:41.278Z,93116.91
2022-11-22T04:28:08.260Z,93119.34
2022-11-22T04:30:53.239Z,93115.00
2022-11-22T04:33:19.800Z,93099.53
2022-11-22T04:35:46.361Z,93104.69
2022-11-22T04:38:12.941Z,93109.19
2022-11-22T04:40:39.473Z,93093.56
2022-11-22T04:43:24.989Z,93092.78
2022-11-22T04:45:51.410Z,92960.41
2022-11-22T04:48:18.110Z,92900.00
2022-11-22T04:51:03.558Z,92868.94
2022-11-22T04:53:30.249Z,92834.13
2022-11-22T04:55:56.753Z,92829.75
2022-11-22T04:58:23.171Z,92807.97
2022-11-22T05:00:49.595Z,92795.72
2022-11-22T05:03:16.048Z,92783.44
2022-11-22T05:05:43.518Z,92783.63
2022-11-22T05:08:09.934Z,92780.25
2022-11-22T05:10:55.419Z,92761.25
2022-11-22T05:13:23.251Z,92748.97
2022-11-22T05:15:51.320Z,92729.97
2022-11-22T05:18:18.712Z,92718.03
2022-11-22T05:20:45.350Z,92688.75
2022-11-22T05:23:30.560Z,92666.16
2022-11-22T05:25:56.970Z,92647.94
2022-11-22T05:28:23.341Z,92641.19
2022-11-22T05:30:49.672Z,92618.78
2022-11-22T05:33:16.030Z,92583.34
2022-11-22T05:35:42.370Z,92574.63
2022-11-22T05:38:08.722Z,92565.91
2022-11-22T05:40:35.080Z,92556.59
2022-11-22T05:43:01.429Z,92546.88
2022-11-22T05:45:27.859Z,92529.47
2022-11-22T05:47:54.229Z,92516.41
2022-11-22T05:50:20.641Z,92033.91
2022-11-22T05:52:47.076Z,92003.38
2022-11-22T05:55:13.747Z,91970.06
2022-11-22T05:57:40.108Z,91951.03
2022-11-22T06:00:06.999Z,91918.91
2022-11-22T06:02:33.531Z,91923.28
2022-11-22T06:04:59.959Z,91914.53
2022-11-22T06:07:26.370Z,91898.09
2022-11-22T06:09:52.780Z,91890.94
2022-11-22T06:12:19.160Z,91872.91
2022-11-22T06:14:45.974Z,91869.31
2022-11-22T06:17:12.360Z,91861.59
2022-11-22T06:19:38.713Z,91852.88
2022-11-22T06:22:06.028Z,91855.03
2022-11-22T06:24:32.394Z,91825.91
2022-11-22T06:26:58.721Z,91829.25
2022-11-22T06:29:25.143Z,91811.81
2022-11-22T06:31:51.489Z,91810.63
2022-11-22T06:34:17.856Z,91798.31
2022-11-22T06:36:44.319Z,91792.38
2022-11-22T06:39:10.752Z,91780.47
2022-11-22T06:41:37.378Z,91770.94
2022-11-22T06:44:07.623Z,91771.75
2022-11-22T06:46:34.126Z,91762.81
2022-11-22T06:49:00.496Z,91754.66
2022-11-22T06:51:30.574Z,91752.28
2022-11-22T06:53:57.607Z,91739.97
2022-11-22T06:56:25.943Z,91721.53
2022-11-22T06:58:52.617Z,91729.25
2022-11-22T07:01:20.589Z,91739.56
2022-11-22T07:03:47.182Z,91734.19
2022-11-22T07:06:14.201Z,91730.03
2022-11-22T07:08:40.756Z,91726.09
2022-11-22T07:11:07.530Z,91720.72
2022-11-22T07:13:34.146Z,91695.31
2022-11-22T07:16:01.746Z,91636.00
2022-11-22T07:18:28.337Z,91626.72
2022-11-22T07:21:06.739Z,91599.50
2022-11-22T07:23:35.905Z,91550.09
2022-11-22T07:26:02.265Z,91534.78
2022-11-22T07:28:28.623Z,91526.44
2022-11-22T07:31:01.838Z,91524.88
2022-11-22T07:33:28.682Z,91513.34
2022-11-22T07:35:55.208Z,91511.13
2022-11-22T07:38:21.648Z,91511.72
2022-11-22T07:40:48.005Z,91505.53
2022-11-22T07:43:14.365Z,91492.44
2022-11-22T07:45:40.729Z,91495.03
2022-11-22T07:48:07.125Z,91494.56
2022-11-22T07:50:33.473Z,91476.31
2022-11-22T07:53:00.188Z,91465.56
2022-11-22T07:55:27.246Z,91483.63
2022-11-22T07:57:53.892Z,91493.38
2022-11-22T08:00:20.444Z,91485.19
2022-11-22T08:02:46.805Z,91485.78
2022-11-22T08:05:13.192Z,91492.28
2022-11-22T08:07:39.681Z,91497.66
2022-11-22T08:10:06.719Z,91501.94
2022-11-22T08:12:33.066Z,91483.25
2022-11-22T08:14:59.465Z,91484.00
2022-11-22T08:17:25.819Z,91493.91
2022-11-22T08:19:53.463Z,91486.72
2022-11-22T08:22:19.819Z,91487.19
2022-11-22T08:24:46.173Z,91486.50
2022-11-22T08:27:12.514Z,91494.59
2022-11-22T08:29:38.895Z,91504.91
2022-11-22T08:32:05.547Z,91513.66
2022-11-22T08:34:31.896Z,91516.47
2022-11-22T08:36:58.302Z,91518.84
2022-11-22T08:39:24.675Z,91531.88
2022-11-22T08:41:51.017Z,91549.38
2022-11-22T08:44:17.410Z,91577.91
2022-11-22T08:46:43.757Z,91603.50
2022-11-22T08:49:13.346Z,91624.28
2022-11-22T08:51:44.820Z,91659.59
2022-11-22T08:54:12.094Z,91706.50
2022-11-22T08:56:38.464Z,91730.31
2022-11-22T08:59:05.132Z,91767.22
2022-11-22T09:01:31.721Z,91800.78
2022-11-22T09:03:58.114Z,91839.91
2022-11-22T09:11:57.189Z,91956.25
2022-11-22T09:14:23.600Z,91982.06
2022-11-22T09:16:49.950Z,92009.88
2022-11-22T09:19:16.381Z,92017.59
2022-11-22T09:21:42.810Z,92046.78
2022-11-22T09:24:09.166Z,92042.81
2022-11-22T09:26:35.663Z,92023.78
2022-11-22T09:29:02.990Z,92018.38
2022-11-22T09:31:30.669Z,92001.50
2022-11-22T09:33:57.052Z,91981.66
2022-11-22T09:36:26.184Z,91980.06
2022-11-22T09:38:52.789Z,91973.91
2022-11-22T09:41:43.867Z,91949.84
2022-11-22T09:44:35.807Z,91947.88
2022-11-22T09:47:15.311Z,91938.09
2022-11-22T09:50:03.422Z,91938.72
2022-11-22T09:52:32.919Z,91922.78
2022-11-22T09:55:01.041Z,91910.47
2022-11-22T09:57:31.652Z,91902.03
2022-11-22T10:00:06.058Z,91881.53
2022-11-22T10:02:58.953Z,91870.94
2022-11-22T10:05:38.492Z,91856.63
2022-11-22T10:08:17.644Z,91857.34
2022-11-22T10:10:43.997Z,91854.13
2022-11-22T10:13:22.973Z,91856.84
2022-11-22T10:15:56.084Z,91859.59
2022-11-22T10:18:51.628Z,91838.84
2022-11-22T10:21:18.243Z,91844.75
2022-11-22T10:23:44.714Z,91857.44
2022-11-22T10:26:27.265Z,91863.00
2022-11-22T10:29:05.307Z,91865.72
2022-11-22T10:31:43.895Z,91884.38
2022-11-22T10:34:44.446Z,91897.91
2022-11-22T10:37:26.496Z,91915.34
2022-11-22T10:40:05.086Z,91957.91
2022-11-22T10:42:59.288Z,91987.38
2022-11-22T10:45:34.670Z,92051.44
2022-11-22T10:48:19.537Z,92092.59
2022-11-22T10:51:07.969Z,92133.38
2022-11-22T10:53:47.033Z,92167.94
2022-11-22T10:56:25.654Z,92216.25
2022-11-22T10:59:11.041Z,92249.44
2022-11-22T11:01:49.700Z,92280.03
2022-11-22T11:04:16.059Z,92321.84
2022-11-22T11:07:12.259Z,92336.53
2022-11-22T11:12:41.146Z,92368.75
2022-11-22T11:15:24.936Z,92385.84
2022-11-22T11:17:58.345Z,92393.78
2022-11-22T11:20:30.974Z,92401.34
2022-11-22T11:25:47.880Z,92442.91
2022-11-22T11:28:25.379Z,92472.56
2022-11-22T11:31:07.830Z,92473.31
2022-11-22T11:33:38.040Z,92510.72
2022-11-22T11:36:05.666Z,92515.13
2022-11-22T11:38:43.157Z,92536.00
2022-11-22T11:41:25.429Z,92538.19
2022-11-22T11:43:53.335Z,92560.50
2022-11-22T11:46:23.549Z,92577.22
2022-11-22T11:48:51.168Z,92590.34
2022-11-22T11:51:35.646Z,92585.94
2022-11-22T11:54:03.822Z,92595.09
2022-11-22T11:56:34.661Z,92595.09
2022-11-22T11:59:05.635Z,92593.50
2022-11-22T12:01:38.503Z,92606.00
2022-11-22T12:04:05.647Z,92643.06
2022-11-22T12:06:32.499Z,92651.66
2022-11-22T12:08:59.625Z,92652.41
2022-11-22T12:11:47.544Z,92641.44
2022-11-22T12:14:21.016Z,92639.25
2022-11-22T12:16:48.007Z,92665.97
2022-11-22T12:19:43.930Z,92696.25
2022-11-22T12:22:35.503Z,92740.09
2022-11-22T12:25:32.159Z,92767.59
2022-11-22T12:28:23.936Z,92768.78
2022-11-22T12:30:56.007Z,92789.31
2022-11-22T12:33:29.613Z,92786.75
2022-11-22T12:35:55.987Z,92820.22
2022-11-22T12:38:28.869Z,92840.16
2022-11-22T12:40:56.895Z,92856.09
2022-11-22T12:43:28.897Z,92837.75
2022-11-22T12:45:56.834Z,92853.13
2022-11-22T12:48:44.583Z,92884.03
2022-11-22T12:51:20.936Z,92916.34
2022-11-22T12:53:47.347Z,92949.63
2022-11-22T12:56:20.897Z,92971.75
2022-11-22T12:59:10.270Z,92967.94
2022-11-22T13:01:40.155Z,92972.34
2022-11-22T13:04:09.405Z,92982.53
2022-11-22T13:06:48.060Z,93027.63
2022-11-22T13:09:17.808Z,93065.50
2022-11-22T13:12:26.370Z,93078.66
2022-11-22T13:14:55.074Z,93070.25
2022-11-22T13:17:24.930Z,93071.44
2022-11-22T13:20:01.337Z,93077.41
2022-11-22T13:22:32.957Z,93077.78
2022-11-22T13:25:28.691Z,93091.38
2022-11-22T13:27:58.757Z,93060.66
2022-11-22T13:30:26.384Z,93051.06
2022-11-22T13:32:53.911Z,93051.06
2022-11-22T13:35:26.208Z,93056.25
2022-11-22T13:37:54.266Z,93047.25
2022-11-22T13:40:25.326Z,93048.03
2022-11-22T13:43:17.865Z,93074.16
2022-11-22T13:45:51.743Z,93104.78
2022-11-22T13:48:54.484Z,93126.88
2022-11-22T13:51:53.649Z,93151.59
2022-11-22T13:54:32.513Z,93166.88
2022-11-22T13:57:00.575Z,93177.63
2022-11-22T13:59:26.944Z,93169.69
2022-11-22T14:02:01.130Z,93148.56
2022-11-22T14:04:31.729Z,93170.84
2022-11-22T14:07:10.802Z,93180.34
2022-11-22T14:09:40.077Z,93195.84
2022-11-22T14:12:28.141Z,93178.88
2022-11-22T14:15:03.660Z,93198.38
2022-11-22T14:17:55.087Z,93184.00
2022-11-22T14:20:36.823Z,93175.81
2022-11-22T14:23:18.382Z,93148.34
2022-11-22T14:26:06.359Z,93165.19
2022-11-22T14:28:54.018Z,93150.19
2022-11-22T14:31:28.347Z,93142.13
2022-11-22T14:34:24.099Z,93109.84
2022-11-22T14:37:12.341Z,93074.53
2022-11-22T14:39:44.874Z,93046.84
2022-11-22T14:42:37.753Z,93010.63
2022-11-22T14:45:10.650Z,92996.47
2022-11-22T14:47:37.949Z,92981.53
2022-11-22T14:50:05.103Z,92994.41
2022-11-22T14:52:32.264Z,93006.84
2022-11-22T14:55:05.893Z,92995.66
2022-11-22T14:57:33.504Z,92995.59
2022-11-22T15:00:06.646Z,93007.47
2022-11-22T15:02:53.039Z,93016.16
2022-11-22T15:09:10.193Z,93032.88
2022-11-22T15:09:13.964Z,93040.72
2022-11-22T15:11:50.481Z,93035.78
2022-11-22T15:14:19.930Z,93070.47
2022-11-22T15:59:01.536Z,93059.84
2022-11-22T16:01:28.213Z,93030.72
2022-11-22T16:03:56.465Z,92980.78
2022-11-22T16:06:25.097Z,92919.88
2022-11-22T16:09:05.493Z,92879.41
2022-11-22T16:11:33.807Z,92827.25
2022-11-22T16:14:00.140Z,92797.91
2022-11-22T16:16:27.665Z,92766.53
2022-11-22T16:18:54.395Z,92742.72
2022-11-22T16:21:28.837Z,92719.28
2022-11-22T16:24:11.491Z,92702.19
2022-11-22T16:26:38.277Z,92689.13
2022-11-22T16:29:16.194Z,92691.13
2022-11-22T16:31:42.568Z,92663.56
2022-11-22T16:34:13.159Z,92644.28
2022-11-22T16:36:39.544Z,92631.59
2022-11-22T16:39:05.883Z,92598.59
2022-11-22T16:41:32.343Z,92570.78
2022-11-22T16:44:04.109Z,92517.91
2022-11-22T16:46:30.468Z,92454.09
2022-11-22T16:48:56.889Z,92469.78
2022-11-22T16:51:24.182Z,92469.38
2022-11-22T16:53:51.133Z,92470.56
2022-11-22T16:56:17.765Z,92467.41
2022-11-22T16:58:44.354Z,92457.66
2022-11-22T17:01:16.052Z,92452.31
2022-11-22T17:03:42.841Z,92443.94
2022-11-22T17:06:19.023Z,92441.97
2022-11-22T17:08:49.390Z,92446.31
2022-11-22T17:11:17.185Z,92459.44
2022-11-22T17:13:43.580Z,92465.03
2022-11-22T17:16:10.618Z,92488.06
2022-11-22T17:18:37.687Z,92490.84
2022-11-22T17:21:15.311Z,92501.53
2022-11-22T17:23:41.705Z,92515.06
2022-11-22T17:26:09.585Z,92539.88
2022-11-22T17:28:35.991Z,92549.00
2022-11-22T17:31:02.792Z,92562.06
2022-11-22T17:33:29.325Z,92597.41
2022-11-22T17:35:55.718Z,92618.81
2022-11-22T17:38:22.063Z,92621.59
2022-11-22T17:40:50.130Z,92632.69
2022-11-22T17:43:16.505Z,92655.28
2022-11-22T17:45:43.203Z,92674.91
2022-11-22T17:48:10.554Z,92697.91
2022-11-22T17:50:36.995Z,92702.06
2022-11-22T17:53:03.496Z,92709.81
2022-11-22T17:55:48.168Z,92715.38
2022-11-22T17:58:16.330Z,92712.59
2022-11-22T18:00:42.699Z,92727.63
2022-11-22T18:03:09.091Z,92738.53
2022-11-22T18:05:35.598Z,92751.97
2022-11-22T18:08:02.047Z,92778.72
2022-11-22T18:10:28.892Z,92802.50
2022-11-22T18:13:19.867Z,92824.66
2022-11-22T18:15:41.603Z,92827.41
2022-11-22T18:18:09.452Z,92817.97
2022-11-22T18:20:40.382Z,92804.50
2022-11-22T18:23:06.793Z,92795.00
2022-11-22T18:25:33.162Z,92782.69
2022-11-22T18:27:59.685Z,92765.28
2022-11-22T18:30:26.081Z,92754.56
2022-11-22T18:32:52.445Z,92747.81
2022-11-22T18:35:18.808Z,92726.81
2022-11-22T18:37:45.345Z,92719.66
2022-11-22T18:40:12.507Z,92720.41
2022-11-22T18:42:38.950Z,92719.78
2022-11-22T18:45:05.587Z,92729.50
2022-11-22T18:47:31.949Z,92732.28
2022-11-22T18:49:58.488Z,92734.44
2022-11-22T18:52:26.427Z,92741.94
2022-11-22T18:54:55.001Z,92742.53
2022-11-22T18:57:21.361Z,92737.00
2022-11-22T18:59:47.724Z,92700.38
2022-11-22T19:02:14.093Z,92674.81
2022-11-22T19:04:40.547Z,92653.81
2022-11-22T19:07:06.914Z,92624.88
2022-11-22T19:09:33.320Z,92601.06
2022-11-22T19:11:59.805Z,92578.41
2022-11-22T19:14:29.107Z,92548.63
2022-11-22T19:16:55.886Z,92547.03
2022-11-22T19:19:24.289Z,92517.47
2022-11-22T19:21:50.678Z,92499.03
2022-11-22T19:24:17.091Z,92469.28
2022-11-22T19:26:43.552Z,92439.50
2022-11-22T19:29:09.967Z,92410.13
2022-11-22T19:31:36.777Z,92400.00
2022-11-22T19:34:03.168Z,92389.09
2022-11-22T19:36:34.106Z,92389.47
2022-11-22T19:39:02.469Z,92334.66
2022-11-22T19:41:28.864Z,92312.03
2022-11-22T19:43:55.582Z,92289.19
2022-11-22T19:46:21.997Z,92271.91
2022-11-22T19:48:56.012Z,92262.38
2022-11-22T19:51:22.613Z,92258.81
2022-11-22T19:53:49.247Z,92256.25
2022-11-22T19:56:18.756Z,92253.03
2022-11-22T19:58:54.361Z,92245.31
2022-11-22T20:01:21.702Z,92246.88
2022-11-22T20:03:51.484Z,92234.59
2022-11-22T20:06:18.067Z,92231.00
2022-11-22T20:08:44.459Z,92228.22
2022-11-22T20:11:12.117Z,92224.25
2022-11-22T20:13:39.768Z,92240.53
2022-11-22T20:16:23.710Z,92233.97
2022-11-22T20:18:56.920Z,92250.47
2022-11-22T20:21:23.731Z,92257.81
2022-11-22T20:23:51.062Z,92266.34
2022-11-22T20:26:17.736Z,92268.34
2022-11-22T20:28:44.483Z,92283.84
2022-11-22T20:31:18.083Z,92281.25
2022-11-22T20:33:46.735Z,92297.72
2022-11-22T20:36:17.904Z,92341.22
2022-11-22T20:38:44.796Z,92352.91
2022-11-22T20:41:11.826Z,92367.63
2022-11-22T20:43:38.513Z,92377.94
2022-11-22T20:46:09.430Z,92392.84
2022-11-22T20:48:36.575Z,92396.59
2022-11-22T20:51:05.320Z,92408.09
2022-11-22T20:53:31.995Z,92421.78
2022-11-22T20:55:58.409Z,92432.72
2022-11-22T20:58:26.001Z,92431.09
2022-11-22T21:00:53.246Z,92431.31
2022-11-22T21:03:19.691Z,92433.09
2022-11-22T21:05:46.623Z,92451.34
2022-11-22T21:08:13.114Z,92470.78
2022-11-22T21:10:39.510Z,92486.03
2022-11-22T21:13:05.854Z,92508.66
2022-11-22T21:15:32.223Z,92497.91
2022-11-22T21:18:23.468Z,92511.81
2022-11-22T21:20:45.968Z,92507.66
2022-11-22T21:23:12.330Z,92515.97
2022-11-22T21:25:38.683Z,92528.09
2022-11-22T21:28:05.060Z,92531.06
2022-11-22T21:30:31.445Z,92540.97
2022-11-22T21:32:57.801Z,92548.06
2022-11-22T21:35:24.161Z,92561.38
2022-11-22T21:37:53.970Z,92571.69
2022-11-22T21:40:20.299Z,92568.72
2022-11-22T21:42:46.656Z,92536.63
2022-11-22T21:45:13.086Z,92522.75
2022-11-22T21:47:39.466Z,92502.16
2022-11-22T21:50:11.406Z,92474.75
2022-11-22T21:52:38.240Z,92448.19
2022-11-22T21:55:05.039Z,92432.31
2022-11-22T21:57:31.444Z,92394.63
2022-11-22T21:59:57.802Z,92353.53
2022-11-22T22:02:24.244Z,92338.25
2022-11-22T22:04:50.600Z,92337.44
2022-11-22T22:07:36.769Z,92331.88
2022-11-22T22:10:04.399Z,92293.94
2022-11-22T22:12:30.872Z,92304.06
2022-11-22T22:14:57.228Z,92330.69
2022-11-22T22:17:23.579Z,92343.03
2022-11-22T22:19:52.195Z,92355.72
2022-11-22T22:22:18.592Z,92360.69
2022-11-22T22:24:44.941Z,92361.28
2022-11-22T22:27:11.325Z,92369.63
2022-11-22T22:29:37.685Z,92386.31
2022-11-22T22:32:10.254Z,92402.63
2022-11-22T22:34:37.019Z,92426.06
2022-11-22T22:37:03.382Z,92450.47
2022-11-22T22:39:30.060Z,92471.72
2022-11-22T22:41:56.694Z,92469.34
2022-11-22T22:44:23.083Z,92471.75
2022-11-22T22:46:49.421Z,92468.19
2022-11-22T22:49:15.778Z,92456.84
2022-11-22T22:51:42.162Z,92474.34
2022-11-22T22:54:10.046Z,92508.13
2022-11-22T22:56:36.429Z,92529.00
2022-11-22T22:59:05.070Z,92524.03
2022-11-22T23:01:31.793Z,92525.06
2022-11-22T23:04:04.687Z,92558.66
2022-11-22T23:06:32.795Z,92581.13
2022-11-22T23:08:59.305Z,92610.97
2022-11-22T23:11:45.978Z,92643.53
2022-11-22T23:14:13.111Z,92663.41
2022-11-22T23:16:39.537Z,92686.28
2022-11-22T23:19:06.356Z,92710.53
2022-11-22T23:21:32.832Z,92744.13
2022-11-22T23:23:59.174Z,92735.22
2022-11-22T23:26:25.666Z,92755.72
2022-11-22T23:28:53.374Z,92763.25
2022-11-22T23:31:19.859Z,92773.22
2022-11-22T23:33:46.274Z,92769.88
2022-11-22T23:36:14.598Z,92771.09
2022-11-22T23:38:41.414Z,92753.81
2022-11-22T23:41:10.133Z,92742.69
2022-11-22T23:43:36.529Z,92723.81
2022-11-22T23:46:02.894Z,92720.47
2022-11-22T23:48:29.289Z,92719.69
2022-11-22T23:50:55.683Z,92722.84
2022-11-22T23:53:22.105Z,92716.13
2022-11-22T23:55:48.449Z,92721.69
2022-11-22T23:58:14.822Z,92743.56
